Time;durP1;ratioP1;P1;durP2;ratioP2;P2;SDS_P1;SDS_P2;PMS_P1;PMS_P2;Temp;Humidity;BMP_temperature;BMP_pressure;BME280_temperature;BME280_humidity;BME280_pressure;Samples;Min_cycle;Max_cycle;Signal;HPM_P1;HPM_P2
2022/01/11 00:01:51;;;;;;;;;;;22.80;48.90;;;;;;5121238;27;20014;-41
2022/01/11 00:04:20;;;;;;;;;;;22.80;48.90;;;;;;5132150;27;19923;-40
2022/01/11 00:06:49;;;;;;;;;;;22.80;48.90;;;;;;5128058;27;19970;-41
2022/01/11 00:09:32;;;;;;;;;;;22.80;48.90;;;;;;5119883;27;19975;-40
2022/01/11 00:11:59;;;;;;;;;;;22.80;48.90;;;;;;5119563;27;19928;-41
2022/01/11 00:14:26;;;;;;;;;;;22.70;48.90;;;;;;5120867;27;20414;-39
2022/01/11 00:16:53;;;;;;;;;;;22.70;48.90;;;;;;5120924;27;19998;-40
2022/01/11 00:19:20;;;;;;;;;;;22.70;48.90;;;;;;5099185;28;19930;-40
2022/01/11 00:21:49;;;;;;;;;;;22.70;48.80;;;;;;5101223;28;19950;-40
2022/01/11 00:24:32;;;;;;;;;;;22.70;48.80;;;;;;5102368;28;19924;-43
2022/01/11 00:27:04;;;;;;;;;;;22.70;48.90;;;;;;5101525;28;19931;-40
2022/01/11 00:29:32;;;;;;;;;;;22.70;48.90;;;;;;5101694;28;19931;-42
2022/01/11 00:32:07;;;;;;;;;;;22.70;48.90;;;;;;5100340;28;19924;-40
2022/01/11 00:34:55;;;;;;;;;;;22.70;48.80;;;;;;5101494;28;20418;-39
2022/01/11 00:37:22;;;;;;;;;;;22.70;48.80;;;;;;5099510;28;20341;-41
2022/01/11 00:39:50;;;;;;;;;;;22.70;48.80;;;;;;5104264;28;19924;-45
2022/01/11 00:42:18;;;;;;;;;;;22.70;48.80;;;;;;5113083;28;19924;-46
2022/01/11 00:44:45;;;;;;;;;;;22.70;48.80;;;;;;5114045;28;19951;-43
2022/01/11 00:47:12;;;;;;;;;;;22.70;48.80;;;;;;5109384;28;20003;-46
2022/01/11 00:49:40;;;;;;;;;;;22.70;48.80;;;;;;5096757;28;19928;-43
2022/01/11 00:52:08;;;;;;;;;;;22.70;48.80;;;;;;5096485;28;19955;-47
2022/01/11 00:54:35;;;;;;;;;;;22.70;48.80;;;;;;5095891;28;21720;-42
2022/01/11 00:57:02;;;;;;;;;;;22.70;48.80;;;;;;5096866;28;19932;-44
2022/01/11 00:59:29;;;;;;;;;;;22.70;48.80;;;;;;5096775;28;19959;-46
2022/01/11 01:01:56;;;;;;;;;;;22.70;48.80;;;;;;5113538;28;20260;-43
2022/01/11 01:04:23;;;;;;;;;;;22.70;48.80;;;;;;5096845;28;19931;-43
2022/01/11 01:06:50;;;;;;;;;;;22.70;48.80;;;;;;5095397;28;19927;-41
2022/01/11 01:09:17;;;;;;;;;;;22.70;48.80;;;;;;5096489;28;19924;-44
2022/01/11 01:11:46;;;;;;;;;;;22.70;48.80;;;;;;5095220;28;19978;-44
2022/01/11 01:14:14;;;;;;;;;;;22.70;48.80;;;;;;5097492;28;19951;-45
2022/01/11 01:16:40;;;;;;;;;;;22.70;48.80;;;;;;5111229;28;19969;-41
2022/01/11 01:19:08;;;;;;;;;;;22.70;48.80;;;;;;5119643;27;19923;-43
2022/01/11 01:21:38;;;;;;;;;;;22.70;48.80;;;;;;5120504;27;19998;-41
2022/01/11 01:24:06;;;;;;;;;;;22.70;48.80;;;;;;5117425;27;19930;-41
2022/01/11 01:26:37;;;;;;;;;;;22.70;48.70;;;;;;5115578;28;19923;-45
2022/01/11 01:29:04;;;;;;;;;;;22.70;48.70;;;;;;5097412;28;19950;-42
2022/01/11 01:31:31;;;;;;;;;;;22.70;48.70;;;;;;5116384;27;20014;-41
2022/01/11 01:33:58;;;;;;;;;;;22.70;48.80;;;;;;5115492;28;19927;-45
2022/01/11 01:36:26;;;;;;;;;;;22.70;48.70;;;;;;5119109;27;20391;-40
2022/01/11 01:38:53;;;;;;;;;;;22.70;48.70;;;;;;5116730;27;20010;-41
2022/01/11 01:41:21;;;;;;;;;;;22.70;48.70;;;;;;5116319;27;19924;-40
2022/01/11 01:43:50;;;;;;;;;;;22.70;48.70;;;;;;5115127;28;19930;-42
2022/01/11 01:46:18;;;;;;;;;;;22.70;48.70;;;;;;5116552;27;20018;-40
2022/01/11 01:48:46;;;;;;;;;;;22.70;48.70;;;;;;5114599;28;19928;-42
2022/01/11 01:51:13;;;;;;;;;;;22.70;48.70;;;;;;5117048;27;20260;-40
2022/01/11 01:53:43;;;;;;;;;;;22.70;48.70;;;;;;5115639;27;19924;-42
2022/01/11 01:56:10;;;;;;;;;;;22.70;48.70;;;;;;5118946;27;19962;-40
2022/01/11 01:58:37;;;;;;;;;;;22.70;48.70;;;;;;5130802;27;20102;-42
2022/01/11 02:01:05;;;;;;;;;;;22.70;48.70;;;;;;5114600;28;20009;-43
2022/01/11 02:03:38;;;;;;;;;;;22.70;48.70;;;;;;5114532;28;20019;-42
2022/01/11 02:06:06;;;;;;;;;;;22.70;48.70;;;;;;5115666;27;20148;-43
2022/01/11 02:08:34;;;;;;;;;;;22.70;48.70;;;;;;5114776;28;20038;-41
2022/01/11 02:11:02;;;;;;;;;;;22.70;48.70;;;;;;5115271;27;20276;-41
2022/01/11 02:13:29;;;;;;;;;;;22.60;48.60;;;;;;5117275;27;19969;-40
2022/01/11 02:15:57;;;;;;;;;;;22.70;48.70;;;;;;5115410;27;19993;-41
2022/01/11 02:18:26;;;;;;;;;;;22.70;48.70;;;;;;5115106;27;20436;-40
2022/01/11 02:20:56;;;;;;;;;;;22.60;48.60;;;;;;5097671;28;19975;-39
2022/01/11 02:23:23;;;;;;;;;;;22.60;48.60;;;;;;5095299;28;19970;-40
2022/01/11 02:25:50;;;;;;;;;;;22.60;48.60;;;;;;5094612;28;20269;-42
2022/01/11 02:28:19;;;;;;;;;;;22.60;48.60;;;;;;5093620;28;19950;-42
2022/01/11 02:34:07;;;;;;;;;;;22.60;48.60;;;;;;5093742;28;20325;-41
2022/01/11 02:36:35;;;;;;;;;;;22.60;48.60;;;;;;5094055;28;19924;-41
2022/01/11 02:39:03;;;;;;;;;;;22.60;48.60;;;;;;5095195;28;19924;-40
2022/01/11 02:41:30;;;;;;;;;;;22.60;48.60;;;;;;5093244;28;19924;-42
2022/01/11 02:43:58;;;;;;;;;;;22.60;48.60;;;;;;5094592;28;19924;-40
2022/01/11 02:46:25;;;;;;;;;;;22.60;48.60;;;;;;5095591;28;20329;-40
2022/01/11 02:48:54;;;;;;;;;;;22.60;48.60;;;;;;5096100;28;19966;-40
2022/01/11 02:51:21;;;;;;;;;;;22.60;48.50;;;;;;5079422;28;19968;-40
2022/01/11 02:53:50;;;;;;;;;;;22.60;48.50;;;;;;5095827;28;19978;-39
2022/01/11 02:56:17;;;;;;;;;;;22.60;48.60;;;;;;5094788;28;19967;-41
2022/01/11 02:58:44;;;;;;;;;;;22.60;48.60;;;;;;5095582;28;19979;-40
2022/01/11 03:01:12;;;;;;;;;;;22.60;48.60;;;;;;5094179;28;20257;-41
2022/01/11 03:03:39;;;;;;;;;;;22.60;48.60;;;;;;5093027;28;19928;-41
2022/01/11 03:06:06;;;;;;;;;;;22.60;48.60;;;;;;5096068;28;19930;-42
2022/01/11 03:08:35;;;;;;;;;;;22.60;48.60;;;;;;5093284;28;20328;-40
2022/01/11 03:11:02;;;;;;;;;;;22.60;48.60;;;;;;5082932;28;19989;-40
2022/01/11 03:13:30;;;;;;;;;;;22.60;48.60;;;;;;5105477;28;20020;-40
2022/01/11 03:15:57;;;;;;;;;;;22.60;49.20;;;;;;5093323;28;19924;-41
2022/01/11 03:18:25;;;;;;;;;;;22.60;48.60;;;;;;5092550;28;19924;-40
2022/01/11 03:20:53;;;;;;;;;;;22.60;48.60;;;;;;5095323;28;20359;-41
2022/01/11 03:23:21;;;;;;;;;;;22.60;48.60;;;;;;5092862;28;19981;-40
2022/01/11 03:25:49;;;;;;;;;;;22.60;48.60;;;;;;5092915;28;20355;-43
2022/01/11 03:28:17;;;;;;;;;;;22.60;48.60;;;;;;5093216;28;19928;-42
2022/01/11 03:30:45;;;;;;;;;;;22.60;48.60;;;;;;5094860;28;19924;-43
2022/01/11 03:33:12;;;;;;;;;;;22.60;48.60;;;;;;5093710;28;19924;-47
2022/01/11 03:35:40;;;;;;;;;;;22.60;48.60;;;;;;5075426;28;20314;-46
2022/01/11 03:38:08;;;;;;;;;;;22.50;48.50;;;;;;5094325;28;20329;-47
2022/01/11 03:40:35;;;;;;;;;;;22.60;48.60;;;;;;5111292;28;19924;-44
2022/01/11 03:43:02;;;;;;;;;;;22.60;48.50;;;;;;5094264;28;19973;-47
2022/01/11 03:45:30;;;;;;;;;;;22.60;48.50;;;;;;5093086;28;19924;-45
2022/01/11 03:47:58;;;;;;;;;;;22.50;48.50;;;;;;5093603;28;20307;-43
2022/01/11 03:50:26;;;;;;;;;;;22.50;48.50;;;;;;5093760;28;20007;-45
2022/01/11 03:53:08;;;;;;;;;;;22.50;48.50;;;;;;5094129;28;19925;-46
2022/01/11 03:56:00;;;;;;;;;;;22.60;48.50;;;;;;5093974;28;20311;-43
2022/01/11 03:58:29;;;;;;;;;;;22.50;48.50;;;;;;5092670;28;19924;-40
2022/01/11 04:00:57;;;;;;;;;;;22.50;48.50;;;;;;5093598;28;20009;-43
2022/01/11 04:03:24;;;;;;;;;;;22.50;48.40;;;;;;5093446;28;19931;-41
2022/01/11 04:05:51;;;;;;;;;;;22.50;48.50;;;;;;5094107;28;19930;-42
2022/01/11 04:08:19;;;;;;;;;;;22.50;48.50;;;;;;5093747;28;19924;-40
2022/01/11 04:10:47;;;;;;;;;;;22.50;48.50;;;;;;5093526;28;19967;-40
2022/01/11 04:13:14;;;;;;;;;;;22.50;48.50;;;;;;5097067;28;20269;-41
2022/01/11 04:15:40;;;;;;;;;;;22.50;48.50;;;;;;5096568;28;19924;-43
2022/01/11 04:18:07;;;;;;;;;;;22.50;48.50;;;;;;5104418;28;20303;-44
2022/01/11 04:20:34;;;;;;;;;;;22.50;49.10;;;;;;5124802;27;19967;-42
2022/01/11 04:23:01;;;;;;;;;;;22.50;48.40;;;;;;5116586;28;19924;-40
2022/01/11 04:25:28;;;;;;;;;;;22.50;48.50;;;;;;5117823;27;20432;-39
2022/01/11 04:27:56;;;;;;;;;;;22.50;48.50;;;;;;5117773;27;20333;-42
2022/01/11 04:30:23;;;;;;;;;;;22.50;48.40;;;;;;5116945;27;20003;-42
2022/01/11 04:32:50;;;;;;;;;;;22.50;48.50;;;;;;5118898;27;19924;-42
2022/01/11 04:35:17;;;;;;;;;;;22.50;48.40;;;;;;5134331;27;19924;-46
2022/01/11 04:37:44;;;;;;;;;;;22.50;48.50;;;;;;5134923;27;19923;-41
2022/01/11 04:40:12;;;;;;;;;;;22.50;48.50;;;;;;5117523;27;19923;-41
2022/01/11 04:42:39;;;;;;;;;;;22.50;48.50;;;;;;5135595;27;19927;-44
2022/01/11 04:45:09;;;;;;;;;;;22.50;48.50;;;;;;5117673;27;19973;-39
2022/01/11 04:47:36;;;;;;;;;;;22.50;48.50;;;;;;5116427;28;19928;-40
2022/01/11 04:50:04;;;;;;;;;;;22.50;48.50;;;;;;5117486;27;19960;-41
2022/01/11 04:52:31;;;;;;;;;;;22.50;48.50;;;;;;5117088;27;19974;-43
2022/01/11 04:54:58;;;;;;;;;;;22.50;48.50;;;;;;5118241;27;20002;-40
2022/01/11 04:57:41;;;;;;;;;;;22.50;48.50;;;;;;5117531;27;20006;-40
2022/01/11 05:00:09;;;;;;;;;;;22.50;48.50;;;;;;5115494;27;19976;-39
2022/01/11 05:02:36;;;;;;;;;;;22.40;48.40;;;;;;5132748;27;20111;-40
2022/01/11 05:05:04;;;;;;;;;;;22.50;48.50;;;;;;5102477;28;20402;-39
2022/01/11 05:07:31;;;;;;;;;;;22.40;48.40;;;;;;5099126;28;19966;-39
2022/01/11 05:09:58;;;;;;;;;;;22.40;48.50;;;;;;5116919;27;20027;-41
2022/01/11 05:12:25;;;;;;;;;;;22.40;48.40;;;;;;5128672;27;19924;-41
2022/01/11 05:14:52;;;;;;;;;;;22.40;48.50;;;;;;5122022;27;19959;-40
2022/01/11 05:17:19;;;;;;;;;;;22.40;48.40;;;;;;5116741;27;19924;-39
2022/01/11 05:19:46;;;;;;;;;;;22.40;48.40;;;;;;5116662;27;19927;-40
2022/01/11 05:22:13;;;;;;;;;;;22.40;48.50;;;;;;5105432;27;19923;-39
2022/01/11 05:24:40;;;;;;;;;;;22.40;48.40;;;;;;5126386;27;19923;-39
2022/01/11 05:27:07;;;;;;;;;;;22.40;48.40;;;;;;5115846;27;20401;-41
2022/01/11 05:29:35;;;;;;;;;;;22.40;48.40;;;;;;5118074;27;19946;-39
2022/01/11 05:32:03;;;;;;;;;;;22.40;48.40;;;;;;5121305;27;19998;-39
2022/01/11 05:34:30;;;;;;;;;;;22.40;48.40;;;;;;5133908;27;19975;-40
2022/01/11 05:36:57;;;;;;;;;;;22.40;48.40;;;;;;5132406;27;20375;-40
2022/01/11 05:39:24;;;;;;;;;;;22.40;48.50;;;;;;5118814;27;20274;-39
2022/01/11 05:41:51;;;;;;;;;;;22.40;48.50;;;;;;5115165;28;19966;-40
2022/01/11 05:44:20;;;;;;;;;;;22.40;48.50;;;;;;5100170;27;20292;-41
2022/01/11 05:46:48;;;;;;;;;;;22.40;48.50;;;;;;5115367;28;19969;-41
2022/01/11 05:49:15;;;;;;;;;;;22.40;48.50;;;;;;5116536;27;19923;-41
2022/01/11 05:51:42;;;;;;;;;;;22.40;48.50;;;;;;5115839;28;20010;-41
2022/01/11 05:54:09;;;;;;;;;;;22.40;48.50;;;;;;5115866;27;19962;-41
2022/01/11 05:56:36;;;;;;;;;;;22.40;48.50;;;;;;5115788;27;19924;-41
2022/01/11 05:59:03;;;;;;;;;;;22.40;48.50;;;;;;5114760;28;19982;-39
2022/01/11 06:01:30;;;;;;;;;;;22.40;48.50;;;;;;5115432;27;19924;-43
2022/01/11 06:03:57;;;;;;;;;;;22.40;48.50;;;;;;5115699;27;19928;-41
2022/01/11 06:06:24;;;;;;;;;;;22.40;48.50;;;;;;5117038;27;20002;-40
2022/01/11 06:08:56;;;;;;;;;;;22.40;48.50;;;;;;5118044;27;19969;-40
2022/01/11 06:11:23;;;;;;;;;;;22.40;48.50;;;;;;5115022;28;19924;-39
2022/01/11 06:13:51;;;;;;;;;;;22.40;48.50;;;;;;5115482;27;20422;-41
2022/01/11 06:16:18;;;;;;;;;;;22.40;49.10;;;;;;5123375;27;19927;-40
2022/01/11 06:18:45;;;;;;;;;;;22.30;48.40;;;;;;5123668;27;19944;-40
2022/01/11 06:21:12;;;;;;;;;;;22.30;48.40;;;;;;5122521;27;19977;-39
2022/01/11 06:23:39;;;;;;;;;;;22.30;48.40;;;;;;5132760;27;20389;-41
2022/01/11 06:26:06;;;;;;;;;;;22.40;48.50;;;;;;5119508;27;19935;-41
2022/01/11 06:28:33;;;;;;;;;;;22.30;48.40;;;;;;5114430;28;19930;-40
2022/01/11 06:31:00;;;;;;;;;;;22.30;48.50;;;;;;5115524;27;20413;-49
2022/01/11 06:33:27;;;;;;;;;;;22.30;48.40;;;;;;5113898;28;19923;-48
2022/01/11 06:35:54;;;;;;;;;;;22.30;48.40;;;;;;5117168;27;20324;-42
2022/01/11 06:38:21;;;;;;;;;;;22.40;48.50;;;;;;5130599;27;19928;-41
2022/01/11 06:40:48;;;;;;;;;;;22.30;48.40;;;;;;5133082;27;19927;-39
2022/01/11 06:43:15;;;;;;;;;;;22.30;48.40;;;;;;5115750;27;19967;-43
2022/01/11 06:45:42;;;;;;;;;;;22.30;48.40;;;;;;5133195;27;19923;-41
2022/01/11 06:48:10;;;;;;;;;;;22.30;48.40;;;;;;5133334;27;19923;-39
2022/01/11 06:50:37;;;;;;;;;;;22.30;48.50;;;;;;5114193;28;20340;-42
2022/01/11 06:53:04;;;;;;;;;;;22.30;48.40;;;;;;5115823;27;19937;-40
2022/01/11 06:55:31;;;;;;;;;;;22.30;48.40;;;;;;5113513;28;19924;-40
2022/01/11 06:58:03;;;;;;;;;;;22.30;48.40;;;;;;5113407;28;20287;-43
2022/01/11 07:00:30;;;;;;;;;;;22.30;48.40;;;;;;5114960;27;19924;-40
2022/01/11 07:02:57;;;;;;;;;;;22.30;48.40;;;;;;5115713;28;19924;-39
2022/01/11 07:05:25;;;;;;;;;;;22.30;48.40;;;;;;5114866;28;19966;-40
2022/01/11 07:07:52;;;;;;;;;;;22.30;48.40;;;;;;5114512;27;19945;-39
2022/01/11 07:10:19;;;;;;;;;;;22.30;48.40;;;;;;5113600;28;19928;-42
2022/01/11 07:12:46;;;;;;;;;;;22.30;48.50;;;;;;5113543;28;19973;-39
2022/01/11 07:15:14;;;;;;;;;;;22.30;48.40;;;;;;5113604;28;20019;-41
2022/01/11 07:17:42;;;;;;;;;;;22.30;48.40;;;;;;5113243;28;19924;-41
2022/01/11 07:20:10;;;;;;;;;;;22.30;48.40;;;;;;5119872;27;19971;-42
2022/01/11 07:22:37;;;;;;;;;;;22.30;48.50;;;;;;5127117;27;19940;-42
2022/01/11 07:25:06;;;;;;;;;;;22.30;48.40;;;;;;5113279;28;19924;-40
2022/01/11 07:27:34;;;;;;;;;;;22.30;48.40;;;;;;5114686;28;20003;-41
2022/01/11 07:30:02;;;;;;;;;;;22.30;48.40;;;;;;5113448;28;19924;-42
2022/01/11 07:32:31;;;;;;;;;;;22.30;48.40;;;;;;5113049;28;19924;-41
2022/01/11 07:34:58;;;;;;;;;;;22.30;48.40;;;;;;5115397;28;20014;-42
2022/01/11 07:37:25;;;;;;;;;;;22.30;48.40;;;;;;5114717;28;19946;-41
2022/01/11 07:39:52;;;;;;;;;;;22.30;48.40;;;;;;5131628;28;20003;-40
2022/01/11 07:42:19;;;;;;;;;;;22.30;48.30;;;;;;5115476;28;20371;-42
2022/01/11 07:44:50;;;;;;;;;;;22.30;48.30;;;;;;5116129;28;19928;-43
2022/01/11 07:47:18;;;;;;;;;;;22.30;48.40;;;;;;5115663;28;19924;-44
2022/01/11 07:49:47;;;;;;;;;;;22.30;48.30;;;;;;5117492;28;19924;-43
2022/01/11 07:52:14;;;;;;;;;;;22.30;48.30;;;;;;5100498;28;20328;-42
2022/01/11 07:54:41;;;;;;;;;;;22.30;48.30;;;;;;5117216;28;19930;-39
2022/01/11 07:57:08;;;;;;;;;;;22.30;48.30;;;;;;5117947;27;20440;-41
2022/01/11 07:59:35;;;;;;;;;;;22.30;48.20;;;;;;5118284;27;19970;-41
2022/01/11 08:02:20;;;;;;;;;;;22.30;48.20;;;;;;5117823;27;19924;-41
2022/01/11 08:04:47;;;;;;;;;;;22.30;48.20;;;;;;5118046;27;20388;-40
2022/01/11 08:07:14;;;;;;;;;;;22.30;48.20;;;;;;5119065;27;20019;-45
2022/01/11 08:09:41;;;;;;;;;;;22.30;48.10;;;;;;5083268;28;20271;-40
2022/01/11 08:12:08;;;;;;;;;;;22.40;48.20;;;;;;5119544;27;20006;-41
2022/01/11 08:14:35;;;;;;;;;;;22.30;48.10;;;;;;5117914;27;19967;-46
2022/01/11 08:17:02;;;;;;;;;;;22.30;48.10;;;;;;5128419;27;19990;-41
2022/01/11 08:19:30;;;;;;;;;;;22.30;48.10;;;;;;5134338;27;19923;-41
2022/01/11 08:21:57;;;;;;;;;;;22.30;48.00;;;;;;5127364;27;20006;-40
2022/01/11 08:24:24;;;;;;;;;;;22.40;48.10;;;;;;5116869;27;19986;-39
2022/01/11 08:26:51;;;;;;;;;;;22.40;48.10;;;;;;5119173;27;19924;-42
2022/01/11 08:29:20;;;;;;;;;;;22.40;48.00;;;;;;5118594;27;19970;-41
2022/01/11 08:31:47;;;;;;;;;;;22.40;48.00;;;;;;5121655;27;19927;-42
2022/01/11 08:34:14;;;;;;;;;;;22.40;48.00;;;;;;5129596;27;20010;-42
2022/01/11 08:36:42;;;;;;;;;;;22.40;47.90;;;;;;5116520;27;19967;-40
2022/01/11 08:39:10;;;;;;;;;;;22.40;47.90;;;;;;5117056;27;20418;-39
2022/01/11 08:41:40;;;;;;;;;;;22.40;47.90;;;;;;5117916;27;19928;-40
2022/01/11 08:44:09;;;;;;;;;;;22.40;47.90;;;;;;5115964;28;20427;-41
2022/01/11 08:46:42;;;;;;;;;;;22.40;47.80;;;;;;5116369;28;19923;-39
2022/01/11 08:49:10;;;;;;;;;;;22.40;47.80;;;;;;5117530;27;20002;-43
2022/01/11 08:51:37;;;;;;;;;;;22.50;47.90;;;;;;5126775;27;19976;-42
2022/01/11 08:54:04;;;;;;;;;;;22.50;47.80;;;;;;5117440;27;19923;-40
2022/01/11 08:56:31;;;;;;;;;;;22.50;47.80;;;;;;5134092;27;19923;-41
2022/01/11 08:58:59;;;;;;;;;;;22.50;47.80;;;;;;5116346;27;19970;-43
2022/01/11 09:01:27;;;;;;;;;;;22.50;47.80;;;;;;5115557;27;19931;-39
2022/01/11 09:03:54;;;;;;;;;;;22.50;47.80;;;;;;5099444;28;19923;-44
2022/01/11 09:06:21;;;;;;;;;;;22.50;47.70;;;;;;5115561;28;19927;-41
2022/01/11 09:09:09;;;;;;;;;;;22.50;47.70;;;;;;5115937;27;19947;-43
2022/01/11 09:11:36;;;;;;;;;;;22.50;47.60;;;;;;5132580;27;20014;-42
2022/01/11 09:14:03;;;;;;;;;;;22.50;47.60;;;;;;5134407;27;20349;-42
2022/01/11 09:16:30;;;;;;;;;;;22.50;47.60;;;;;;5120058;27;19945;-40
2022/01/11 09:18:57;;;;;;;;;;;22.60;47.60;;;;;;5129438;27;20343;-42
2022/01/11 09:21:24;;;;;;;;;;;22.60;47.60;;;;;;5121241;27;20505;-40
2022/01/11 09:23:51;;;;;;;;;;;22.60;47.60;;;;;;5116655;27;19959;-42
2022/01/11 09:26:18;;;;;;;;;;;22.60;47.50;;;;;;5115064;27;20337;-40
2022/01/11 09:28:45;;;;;;;;;;;22.60;47.50;;;;;;5116423;27;19924;-39
2022/01/11 09:31:12;;;;;;;;;;;22.60;47.40;;;;;;5114961;28;19924;-42
2022/01/11 09:33:39;;;;;;;;;;;22.70;47.40;;;;;;5117635;27;19924;-42
2022/01/11 09:36:06;;;;;;;;;;;22.70;47.40;;;;;;5116168;27;19946;-41
2022/01/11 09:38:33;;;;;;;;;;;22.70;47.40;;;;;;5119747;27;19923;-40
2022/01/11 09:41:00;;;;;;;;;;;22.70;47.30;;;;;;5129403;27;19953;-41
2022/01/11 09:43:28;;;;;;;;;;;22.70;47.40;;;;;;5117286;27;20990;-41
2022/01/11 09:45:56;;;;;;;;;;;22.70;47.30;;;;;;5114850;28;19924;-41
2022/01/11 09:48:25;;;;;;;;;;;22.70;47.30;;;;;;5117497;27;20378;-41
2022/01/11 09:50:52;;;;;;;;;;;22.80;47.30;;;;;;5115809;27;19968;-43
2022/01/11 09:53:19;;;;;;;;;;;22.80;47.20;;;;;;5117836;27;19927;-41
2022/01/11 09:55:46;;;;;;;;;;;22.80;47.20;;;;;;5115714;27;19924;-40
2022/01/11 09:58:13;;;;;;;;;;;22.80;47.20;;;;;;5116163;27;19955;-40
2022/01/11 10:00:40;;;;;;;;;;;22.80;47.10;;;;;;5114813;28;19967;-40
2022/01/11 10:03:08;;;;;;;;;;;22.80;47.10;;;;;;5115892;27;19927;-41
2022/01/11 10:05:38;;;;;;;;;;;22.80;47.10;;;;;;5117072;27;19930;-41
2022/01/11 10:08:37;;;;;;;;;;;22.80;47.00;;;;;;5114834;28;20332;-41
2022/01/11 10:11:04;;;;;;;;;;;22.80;47.00;;;;;;5031035;28;19932;-41
2022/01/11 10:13:36;;;;;;;;;;;22.90;47.00;;;;;;5031896;28;20304;-40
2022/01/11 10:16:22;;;;;;;;;;;22.90;47.00;;;;;;5031815;28;20324;-39
2022/01/11 10:18:49;;;;;;;;;;;22.90;47.00;;;;;;5028644;28;19926;-40
2022/01/11 10:21:34;;;;;;;;;;;22.90;47.00;;;;;;5011815;28;19996;-43
2022/01/11 10:24:20;;;;;;;;;;;22.90;46.90;;;;;;5011701;28;19926;-42
2022/01/11 10:26:47;;;;;;;;;;;22.90;46.90;;;;;;5011671;28;19976;-45
2022/01/11 10:29:23;;;;;;;;;;;22.90;46.90;;;;;;5011741;28;19972;-41
2022/01/11 10:31:50;;;;;;;;;;;22.90;46.80;;;;;;4994957;28;19961;-44
2022/01/11 10:34:33;;;;;;;;;;;22.90;46.90;;;;;;5011721;28;20424;-40
2022/01/11 10:37:02;;;;;;;;;;;22.90;46.80;;;;;;4979308;28;19925;-42
2022/01/11 10:39:29;;;;;;;;;;;23.00;46.90;;;;;;5011629;28;19972;-41
2022/01/11 10:41:57;;;;;;;;;;;22.90;46.80;;;;;;4995197;28;20004;-43
2022/01/11 10:44:42;;;;;;;;;;;23.00;46.90;;;;;;5011399;28;19969;-41
2022/01/11 10:47:09;;;;;;;;;;;23.00;46.90;;;;;;5062854;28;19970;-43
2022/01/11 10:49:37;;;;;;;;;;;23.00;47.40;;;;;;5093776;28;19924;-45
2022/01/11 10:52:23;;;;;;;;;;;23.00;46.80;;;;;;5095010;28;20413;-41
2022/01/11 10:54:51;;;;;;;;;;;23.00;46.80;;;;;;5093250;28;19924;-41
2022/01/11 10:57:22;;;;;;;;;;;23.00;46.80;;;;;;5111495;28;19928;-42
2022/01/11 11:00:04;;;;;;;;;;;23.00;46.80;;;;;;5111074;28;20354;-41
2022/01/11 11:02:31;;;;;;;;;;;23.00;46.70;;;;;;5093426;28;19928;-40
2022/01/11 11:05:00;;;;;;;;;;;23.00;46.70;;;;;;5093263;28;19928;-40
2022/01/11 11:07:39;;;;;;;;;;;23.00;46.70;;;;;;5077523;28;20290;-41
2022/01/11 11:10:06;;;;;;;;;;;23.00;46.70;;;;;;5093543;28;19924;-41
2022/01/11 11:12:33;;;;;;;;;;;23.00;46.60;;;;;;5094516;28;19993;-40
2022/01/11 11:15:00;;;;;;;;;;;23.10;46.70;;;;;;5093409;28;20352;-40
2022/01/11 11:17:32;;;;;;;;;;;23.10;46.70;;;;;;5095347;28;19924;-39
2022/01/11 11:20:00;;;;;;;;;;;23.10;46.70;;;;;;5107890;28;20002;-41
2022/01/11 11:22:28;;;;;;;;;;;23.10;46.70;;;;;;5113719;27;19934;-40
2022/01/11 11:24:56;;;;;;;;;;;23.10;46.70;;;;;;5114799;28;19924;-40
2022/01/11 11:27:24;;;;;;;;;;;23.10;46.70;;;;;;5114519;28;19924;-41
2022/01/11 11:29:51;;;;;;;;;;;23.10;46.60;;;;;;5125896;28;19963;-41
2022/01/11 11:32:20;;;;;;;;;;;23.10;46.60;;;;;;5119276;28;20303;-39
2022/01/11 11:34:50;;;;;;;;;;;23.10;46.60;;;;;;5115481;28;19924;-41
2022/01/11 11:37:22;;;;;;;;;;;23.10;46.50;;;;;;5115697;28;19959;-44
2022/01/11 11:39:55;;;;;;;;;;;23.10;46.50;;;;;;5113003;28;19974;-40
2022/01/11 11:42:23;;;;;;;;;;;23.10;46.60;;;;;;5097593;28;19969;-39
2022/01/11 11:44:51;;;;;;;;;;;23.10;46.60;;;;;;5123565;28;19970;-40
2022/01/11 11:47:30;;;;;;;;;;;23.10;46.60;;;;;;5122834;28;19932;-40
2022/01/11 11:49:58;;;;;;;;;;;23.10;46.50;;;;;;5115439;28;19924;-39
2022/01/11 11:52:26;;;;;;;;;;;23.10;46.50;;;;;;5121213;28;20029;-42
2022/01/11 11:54:55;;;;;;;;;;;23.10;46.50;;;;;;5122559;28;19971;-39
2022/01/11 11:57:23;;;;;;;;;;;23.10;46.50;;;;;;5114406;28;20387;-39
2022/01/11 11:59:51;;;;;;;;;;;23.10;46.50;;;;;;5113248;28;19967;-41
2022/01/11 12:02:33;;;;;;;;;;;23.10;46.60;;;;;;5114503;28;20371;-41
2022/01/11 12:05:00;;;;;;;;;;;23.10;46.60;;;;;;5113131;28;20291;-39
2022/01/11 12:07:31;;;;;;;;;;;23.10;46.60;;;;;;5113676;28;19930;-40
2022/01/11 12:09:58;;;;;;;;;;;23.10;46.60;;;;;;5118996;28;20374;-40
2022/01/11 12:12:41;;;;;;;;;;;23.10;46.60;;;;;;5130963;28;19930;-41
2022/01/11 12:15:31;;;;;;;;;;;23.10;46.60;;;;;;5124933;28;19988;-42
2022/01/11 12:17:58;;;;;;;;;;;23.10;46.60;;;;;;5113761;28;20371;-41
2022/01/11 12:20:41;;;;;;;;;;;23.10;46.60;;;;;;5113814;28;19971;-39
2022/01/11 12:23:13;;;;;;;;;;;23.10;46.60;;;;;;5119930;28;19927;-45
2022/01/11 12:25:43;;;;;;;;;;;23.10;46.60;;;;;;5120068;28;19924;-38
2022/01/11 12:28:17;;;;;;;;;;;23.10;46.70;;;;;;5119778;28;19927;-41
2022/01/11 12:30:44;;;;;;;;;;;23.10;46.60;;;;;;5122700;28;19970;-40
2022/01/11 12:33:13;;;;;;;;;;;23.10;46.60;;;;;;5117764;27;19924;-40
2022/01/11 12:36:10;;;;;;;;;;;23.10;46.60;;;;;;5116201;28;19931;-40
2022/01/11 12:38:37;;;;;;;;;;;23.10;46.60;;;;;;5094690;28;19924;-40
2022/01/11 12:41:23;;;;;;;;;;;23.10;46.60;;;;;;5118692;27;20332;-45
2022/01/11 12:43:56;;;;;;;;;;;23.10;46.60;;;;;;5117414;27;20015;-46
2022/01/11 12:46:23;;;;;;;;;;;23.10;46.60;;;;;;5100492;28;19923;-43
2022/01/11 12:48:57;;;;;;;;;;;23.10;46.60;;;;;;5117822;27;19947;-43
2022/01/11 12:51:33;;;;;;;;;;;23.10;46.60;;;;;;5124936;27;19930;-40
2022/01/11 12:54:20;;;;;;;;;;;23.10;46.60;;;;;;5124201;27;20358;-43
2022/01/11 12:56:48;;;;;;;;;;;23.10;46.60;;;;;;5117385;27;19953;-41
2022/01/11 12:59:16;;;;;;;;;;;23.10;46.60;;;;;;5108670;27;19974;-44
2022/01/11 13:01:43;;;;;;;;;;;23.20;46.70;;;;;;5124722;27;19967;-42
2022/01/11 13:04:10;;;;;;;;;;;23.20;46.70;;;;;;5116672;27;19923;-41
2022/01/11 13:06:38;;;;;;;;;;;23.10;46.50;;;;;;5117372;27;19927;-44
2022/01/11 13:09:07;;;;;;;;;;;23.20;46.60;;;;;;5115949;28;20278;-45
2022/01/11 13:11:34;;;;;;;;;;;23.20;46.60;;;;;;5115832;28;20037;-42
2022/01/11 13:14:18;;;;;;;;;;;23.20;46.60;;;;;;5117222;27;19924;-42
2022/01/11 13:16:48;;;;;;;;;;;23.20;46.60;;;;;;5122838;27;19927;-41
2022/01/11 13:19:15;;;;;;;;;;;23.20;46.60;;;;;;5120928;27;19924;-46
2022/01/11 13:21:43;;;;;;;;;;;23.20;46.60;;;;;;5098615;28;20039;-44
2022/01/11 13:24:22;;;;;;;;;;;23.20;46.60;;;;;;5096312;28;19979;-47
2022/01/11 13:26:50;;;;;;;;;;;23.20;46.60;;;;;;5095931;28;19924;-46
2022/01/11 13:29:18;;;;;;;;;;;23.20;46.60;;;;;;5096038;28;19924;-43
2022/01/11 13:31:52;;;;;;;;;;;23.20;46.60;;;;;;5095987;28;19924;-46
2022/01/11 13:34:25;;;;;;;;;;;23.20;46.70;;;;;;5097306;28;20011;-48
2022/01/11 13:36:54;;;;;;;;;;;23.20;46.70;;;;;;5095718;28;19967;-45
2022/01/11 13:39:26;;;;;;;;;;;23.10;46.60;;;;;;5095880;28;20379;-45
2022/01/11 13:42:00;;;;;;;;;;;23.10;46.60;;;;;;5096103;28;19989;-43
2022/01/11 13:44:29;;;;;;;;;;;23.10;46.80;;;;;;5096841;28;19951;-43
2022/01/11 13:46:58;;;;;;;;;;;23.20;46.70;;;;;;5097037;28;20367;-40
2022/01/11 13:49:29;;;;;;;;;;;23.20;46.70;;;;;;5094255;28;19924;-40
2022/01/11 13:52:03;;;;;;;;;;;23.20;46.70;;;;;;5113741;28;19923;-41
2022/01/11 13:54:33;;;;;;;;;;;23.20;46.70;;;;;;5094890;28;19970;-39
2022/01/11 13:57:02;;;;;;;;;;;23.20;46.70;;;;;;5094400;28;19928;-40
2022/01/11 13:59:29;;;;;;;;;;;23.20;46.70;;;;;;5094297;28;20023;-42
2022/01/11 14:02:13;;;;;;;;;;;23.20;46.70;;;;;;5093990;28;19938;-39
2022/01/11 14:05:00;;;;;;;;;;;23.20;46.70;;;;;;5094635;28;20354;-38
2022/01/11 14:07:28;;;;;;;;;;;23.20;46.70;;;;;;5095356;28;20337;-43
2022/01/11 14:10:04;;;;;;;;;;;23.20;46.70;;;;;;5095347;28;19924;-39
2022/01/11 14:12:40;;;;;;;;;;;23.20;46.70;;;;;;5094352;28;19924;-43
2022/01/11 14:15:25;;;;;;;;;;;23.20;46.80;;;;;;5095093;28;19923;-43
2022/01/11 14:17:52;;;;;;;;;;;23.20;46.70;;;;;;5094896;28;20379;-42
2022/01/11 14:20:45;;;;;;;;;;;23.20;46.70;;;;;;5095944;28;19924;-45
2022/01/11 14:23:17;;;;;;;;;;;23.20;46.70;;;;;;5092916;28;19924;-42
2022/01/11 14:25:48;;;;;;;;;;;23.20;46.70;;;;;;5096061;28;20011;-39
2022/01/11 14:28:16;;;;;;;;;;;23.20;46.70;;;;;;5075711;28;19932;-40
2022/01/11 14:30:45;;;;;;;;;;;23.20;46.80;;;;;;5094749;28;19970;-40
2022/01/11 14:33:24;;;;;;;;;;;23.20;46.70;;;;;;5095991;28;19967;-43